Time;durP1;ratioP1;P1;durP2;ratioP2;P2;SDS_P1;SDS_P2;PMS_P1;PMS_P2;Temp;Humidity;BMP_temperature;BMP_pressure;BME280_temperature;BME280_humidity;BME280_pressure;Samples;Min_cycle;Max_cycle;Signal;HPM_P1;HPM_P2
2022/01/17 00:01:08;;;;;;;183.50;73.10;;;;;;;-1.29;69.27;95788.75;4996319;28;20497;-78
2022/01/17 00:03:34;;;;;;;155.50;66.80;;;;;;;-1.97;68.77;95688.63;5028859;28;20034;-77
2022/01/17 00:06:01;;;;;;;161.07;68.13;;;;;;;-1.69;69.03;95726.94;4996213;28;20077;-78
2022/01/17 00:08:26;;;;;;;166.50;67.80;;;;;;;-2.18;68.82;95644.41;5028712;28;20030;-78
2022/01/17 00:10:52;;;;;;;163.13;67.60;;;;;;;-1.47;69.34;95771.97;5028881;28;20037;-78
2022/01/17 00:13:26;;;;;;;170.45;70.10;;;;;;;-1.92;68.96;95682.06;5012109;28;20030;-78
2022/01/17 00:15:58;;;;;;;180.82;70.05;;;;;;;-2.02;69.10;95683.16;5013616;28;20113;-78
2022/01/17 00:20:49;;;;;;;186.40;79.18;;;;;;;-1.94;69.64;95708.25;5013397;28;20036;-78
2022/01/17 00:23:15;;;;;;;173.85;72.90;;;;;;;-1.35;69.31;95783.50;5012909;28;20112;-78
2022/01/17 00:25:41;;;;;;;172.13;71.68;;;;;;;-1.84;69.42;95710.56;5028533;28;20021;-78
2022/01/17 00:28:06;;;;;;;181.85;76.38;;;;;;;-1.35;69.41;95780.88;4995404;28;20033;-78
2022/01/17 00:30:32;;;;;;;193.32;78.13;;;;;;;-1.58;69.19;95742.03;5013377;28;20029;-78
2022/01/17 00:32:57;;;;;;;193.07;78.18;;;;;;;-1.46;69.50;95774.41;5012522;28;20032;-78
2022/01/17 00:35:24;;;;;;;190.18;76.00;;;;;;;-1.74;69.58;95727.47;5012577;28;20060;-78
2022/01/17 00:37:51;;;;;;;177.20;72.63;;;;;;;-1.40;69.45;95778.84;5012918;28;20144;-79
2022/01/17 00:40:18;;;;;;;190.38;72.00;;;;;;;-1.39;69.11;95790.88;5013100;28;20064;-79
2022/01/17 00:42:43;;;;;;;173.43;73.10;;;;;;;-1.45;69.87;95801.22;4995143;28;20481;-79
2022/01/17 00:45:13;;;;;;;171.35;69.90;;;;;;;-1.48;69.30;95770.34;4994976;28;20113;-78
2022/01/17 00:47:39;;;;;;;167.65;70.18;;;;;;;-2.08;68.64;95670.91;5027634;28;20442;-78
2022/01/17 00:50:05;;;;;;;177.95;75.93;;;;;;;-1.92;70.38;95728.88;4995481;28;20070;-78
2022/01/17 00:52:31;;;;;;;175.68;73.63;;;;;;;-2.16;70.23;95712.59;5014656;28;20097;-78
2022/01/17 00:54:56;;;;;;;175.57;74.03;;;;;;;-1.54;70.17;95784.91;4996792;28;20034;-78
2022/01/17 00:57:23;;;;;;;175.90;72.63;;;;;;;-2.12;70.27;95703.44;4997402;28;20065;-79
2022/01/17 00:59:49;;;;;;;183.00;73.18;;;;;;;-1.63;69.80;95770.41;5014008;28;20034;-79
2022/01/17 01:02:15;;;;;;;172.48;71.72;;;;;;;-1.71;69.81;95747.09;5029416;28;20065;-78
2022/01/17 01:04:40;;;;;;;174.07;72.90;;;;;;;-1.96;70.96;95767.41;5014327;28;20045;-78
2022/01/17 01:07:06;;;;;;;188.90;77.75;;;;;;;-2.11;71.41;95779.59;5014287;28;20107;-78
2022/01/17 01:09:38;;;;;;;176.98;74.80;;;;;;;-2.27;70.77;95707.03;5014156;28;20543;-78
2022/01/17 01:12:04;;;;;;;186.23;73.93;;;;;;;-1.80;70.61;95767.19;5014047;28;20091;-78
2022/01/17 01:14:29;;;;;;;168.25;75.57;;;;;;;-1.86;70.37;95739.34;4996037;28;20030;-79
2022/01/17 01:16:56;;;;;;;182.10;74.47;;;;;;;-2.26;70.33;95678.28;4993837;28;20038;-78
2022/01/17 01:19:39;;;;;;;179.88;74.22;;;;;;;-1.90;70.06;95713.88;5011711;28;20501;-78
2022/01/17 01:27:54;;;;;;;205.32;84.03;;;;;;;-1.65;70.88;95752.38;3628861;28;10001276;-79
2022/01/17 01:30:23;;;;;;;198.10;85.25;;;;;;;-1.73;70.16;95723.88;1306272;28;10021844;-78
2022/01/17 01:32:53;;;;;;;215.80;88.75;;;;;;;-2.19;70.81;95673.16;3958757;28;10001367;-78
2022/01/17 01:35:22;;;;;;;210.63;86.40;;;;;;;-2.22;70.40;95643.19;4990842;28;20096;-79
2022/01/17 01:37:48;;;;;;;209.75;85.75;;;;;;;-1.73;70.02;95713.47;4991913;28;20121;-79
2022/01/17 01:40:16;;;;;;;229.57;89.07;;;;;;;-1.65;69.38;95723.75;4974220;28;20038;-78
2022/01/17 01:42:43;;;;;;;196.40;77.05;;;;;;;-2.02;69.20;95685.78;4992290;28;20490;-78
2022/01/17 01:45:09;;;;;;;175.02;75.97;;;;;;;-1.61;70.03;95753.63;4990287;28;20116;-78
2022/01/17 01:47:35;;;;;;;253.65;100.70;;;;;;;-2.06;69.74;95670.75;4990382;28;20038;-78
2022/01/17 01:50:01;;;;;;;216.68;88.28;;;;;;;-1.90;70.07;95727.69;4974201;28;20037;-78
2022/01/17 01:52:26;;;;;;;190.32;79.32;;;;;;;-2.14;71.48;95733.22;4991852;28;20058;-78
2022/01/17 01:54:52;;;;;;;214.65;85.47;;;;;;;-1.86;71.12;95738.53;5006536;28;20062;-78
2022/01/17 01:57:18;;;;;;;176.80;74.38;;;;;;;-2.25;70.59;95669.50;4990422;28;20121;-79
2022/01/17 01:59:44;;;;;;;178.75;75.05;;;;;;;-2.07;70.15;95695.91;5006641;28;20081;-78
2022/01/17 02:02:09;;;;;;;199.02;82.97;;;;;;;-2.15;70.98;95685.63;4991503;28;20616;-78
2022/01/17 02:04:35;;;;;;;190.90;79.80;;;;;;;-1.99;70.50;95695.81;4973758;28;20039;-78
2022/01/17 02:07:00;;;;;;;182.77;75.68;;;;;;;-2.00;70.17;95683.81;5006640;28;20045;-79
2022/01/17 02:09:26;;;;;;;176.57;74.95;;;;;;;-2.01;70.67;95712.56;4991791;28;20038;-79
2022/01/17 02:11:52;;;;;;;181.20;77.32;;;;;;;-1.83;69.98;95725.19;4991381;28;20505;-79
2022/01/17 02:14:18;;;;;;;171.98;67.47;;;;;;;-1.96;69.74;95700.63;4991512;28;20073;-78
2022/01/17 02:17:02;;;;;;;188.18;76.55;;;;;;;-2.41;70.42;95677.50;4992205;28;20034;-79
2022/01/17 02:19:30;;;;;;;174.17;72.23;;;;;;;-2.31;70.52;95672.84;5006840;28;20038;-79
2022/01/17 02:21:57;;;;;;;169.80;70.25;;;;;;;-2.47;70.62;95627.09;4990901;28;20046;-78
2022/01/17 02:24:23;;;;;;;172.25;71.53;;;;;;;-2.29;70.01;95651.88;4991574;28;20458;-78
2022/01/17 02:26:52;;;;;;;155.27;64.13;;;;;;;-2.07;70.06;95682.94;5006143;28;20426;-78
2022/01/17 02:29:18;;;;;;;179.25;69.30;;;;;;;-2.22;70.02;95696.94;4993734;28;20034;-79
2022/01/17 02:31:46;;;;;;;166.90;66.60;;;;;;;-2.20;70.42;95715.72;4982929;28;20149;-79
2022/01/17 02:34:12;;;;;;;152.40;63.40;;;;;;;-2.04;70.11;95708.53;5001872;28;20038;-80
2022/01/17 02:36:38;;;;;;;159.80;62.78;;;;;;;-2.21;70.47;95688.94;4995685;28;20046;-81
2022/01/17 02:39:04;;;;;;;152.43;61.10;;;;;;;-2.45;70.17;95658.91;4995483;28;20034;-80
2022/01/17 02:41:34;;;;;;;157.23;60.63;;;;;;;-2.88;70.07;95602.59;4991874;28;20143;-80
2022/01/17 02:44:02;;;;;;;143.93;59.78;;;;;;;-2.40;69.84;95655.75;4992073;28;20054;-81
2022/01/17 02:46:29;;;;;;;154.07;61.03;;;;;;;-2.48;69.46;95648.84;4997153;28;20102;-80
2022/01/17 02:48:56;;;;;;;131.57;57.80;;;;;;;-2.06;69.57;95722.72;4995945;28;20084;-80
2022/01/17 02:51:22;;;;;;;145.15;60.13;;;;;;;-2.67;69.72;95631.22;4997996;28;20057;-80
2022/01/17 02:53:49;;;;;;;150.55;58.85;;;;;;;-2.42;69.90;95696.66;5012002;28;20426;-80
2022/01/17 02:56:15;;;;;;;150.50;58.47;;;;;;;-2.39;70.71;95702.31;4997380;28;20101;-81
2022/01/17 02:58:40;;;;;;;136.95;58.78;;;;;;;-2.17;70.29;95729.16;4996093;28;20543;-81
2022/01/17 03:01:16;;;;;;;127.07;55.13;;;;;;;-2.88;69.86;95615.56;4996105;28;20038;-79
2022/01/17 03:03:42;;;;;;;136.40;56.03;;;;;;;-2.46;69.49;95641.69;5012141;28;20035;-81
2022/01/17 03:06:09;;;;;;;134.50;54.47;;;;;;;-2.95;69.36;95570.56;4997404;28;20034;-80
2022/01/17 03:08:36;;;;;;;137.50;54.60;;;;;;;-1.97;68.95;95695.59;4996155;28;20038;-81
2022/01/17 03:11:05;;;;;;;130.75;50.95;;;;;;;-2.58;69.15;95614.56;4996065;28;20470;-81
2022/01/17 03:13:34;;;;;;;130.25;52.70;;;;;;;-2.42;69.02;95634.31;4997451;28;20034;-81
2022/01/17 03:16:04;;;;;;;118.20;48.03;;;;;;;-2.09;68.78;95702.28;4997748;28;20440;-81
2022/01/17 03:18:39;;;;;;;141.43;49.90;;;;;;;-2.09;68.84;95702.28;4979294;28;20061;-81
2022/01/17 03:21:06;;;;;;;131.70;50.70;;;;;;;-2.20;68.86;95682.75;4995722;28;20524;-81
2022/01/17 03:23:32;;;;;;;109.03;46.72;;;;;;;-2.68;68.48;95603.66;4997347;28;20117;-81
2022/01/17 03:25:58;;;;;;;130.07;51.25;;;;;;;-2.41;69.42;95657.53;4995823;28;20066;-81
2022/01/17 03:28:25;;;;;;;126.72;52.63;;;;;;;-2.02;68.80;95714.38;4961682;28;20069;-81
2022/01/17 03:31:11;;;;;;;110.02;44.75;;;;;;;-2.29;69.37;95701.25;963944;28;10003201;-80
2022/01/17 03:33:38;;;;;;;128.20;50.22;;;;;;;-3.04;69.66;95597.59;4995394;28;20285;-80
2022/01/17 03:36:05;;;;;;;139.18;56.38;;;;;;;-2.13;68.92;95701.00;4996875;28;20089;-80
2022/01/17 03:38:33;;;;;;;148.93;55.40;;;;;;;-2.67;68.84;95641.59;4997020;28;20034;-80
2022/01/17 03:41:00;;;;;;;162.52;61.03;;;;;;;-2.63;70.06;95660.25;4995715;28;20571;-81
2022/01/17 03:43:26;;;;;;;139.88;57.25;;;;;;;-2.04;69.68;95711.13;4995330;28;20084;-81
2022/01/17 03:45:52;;;;;;;122.38;48.92;;;;;;;-2.60;70.15;95702.25;4995307;28;20034;-81
2022/01/17 03:48:19;;;;;;;137.90;51.78;;;;;;;-2.60;70.20;95680.66;5027908;28;20042;-81
2022/01/17 03:50:45;;;;;;;119.90;50.45;;;;;;;-3.12;69.86;95617.44;4996442;28;20046;-80
2022/01/17 03:53:10;;;;;;;137.55;54.35;;;;;;;-3.08;69.66;95597.16;4996946;28;20023;-81
2022/01/17 03:55:36;;;;;;;142.63;54.50;;;;;;;-2.15;69.38;95737.59;4997001;28;20030;-81
2022/01/17 03:58:04;;;;;;;277.20;128.40;;;;;;;-2.25;69.62;95737.06;4995890;28;20065;-81
2022/01/17 04:00:34;;;;;;;216.80;101.28;;;;;;;-2.49;69.69;95698.38;4996531;28;20113;-81
2022/01/17 04:03:00;;;;;;;227.23;100.15;;;;;;;-2.37;69.86;95715.94;4995503;28;20027;-81
2022/01/17 04:05:26;;;;;;;164.65;68.53;;;;;;;-2.42;69.53;95713.06;4995436;28;20069;-80
2022/01/17 04:07:52;;;;;;;164.23;68.78;;;;;;;-2.42;69.23;95684.50;4995843;28;20038;-80
2022/01/17 04:10:17;;;;;;;143.55;57.67;;;;;;;-2.06;68.59;95731.28;4997813;28;20494;-81
2022/01/17 04:12:44;;;;;;;126.53;51.70;;;;;;;-2.51;69.03;95708.94;4997832;28;20033;-81
2022/01/17 04:15:10;;;;;;;125.53;49.35;;;;;;;-2.35;69.81;95734.72;5028806;28;20045;-81
2022/01/17 04:17:36;;;;;;;121.20;51.45;;;;;;;-3.30;70.14;95632.56;4995740;28;20022;-81
2022/01/17 04:20:11;;;;;;;129.85;48.42;;;;;;;-3.62;70.10;95548.09;5028121;28;20045;-81
2022/01/17 04:22:50;;;;;;;115.35;48.85;;;;;;;-2.49;69.63;95724.34;4996011;28;20085;-82
2022/01/17 04:25:16;;;;;;;115.72;48.15;;;;;;;-2.79;69.43;95680.19;4996903;28;20035;-81
2022/01/17 04:27:41;;;;;;;117.97;47.85;;;;;;;-2.52;69.55;95729.91;4995586;28;20156;-81
2022/01/17 04:30:07;;;;;;;115.55;47.40;;;;;;;-2.63;70.12;95720.78;5028358;28;20037;-81
2022/01/17 04:32:33;;;;;;;117.80;45.95;;;;;;;-2.63;70.49;95718.16;4996365;28;20116;-81
2022/01/17 04:34:59;;;;;;;118.78;48.97;;;;;;;-2.74;69.25;95685.66;4995437;28;20133;-81
2022/01/17 04:37:24;;;;;;;118.15;46.03;;;;;;;-2.78;69.41;95662.84;4997169;28;20046;-81
2022/01/17 04:39:50;;;;;;;122.40;47.63;;;;;;;-2.57;69.67;95721.84;4995348;28;20030;-80
2022/01/17 04:42:17;;;;;;;112.88;46.25;;;;;;;-2.70;70.16;95732.03;4979371;28;20113;-80
2022/01/17 04:47:31;;;;;;;109.93;44.13;;;;;;;-3.16;70.38;95673.28;4996971;28;20053;-80
2022/01/17 04:49:57;;;;;;;111.40;43.88;;;;;;;-2.80;69.95;95729.69;4996769;28;20065;-80
2022/01/17 04:52:22;;;;;;;109.90;44.95;;;;;;;-2.80;70.36;95724.50;5011568;28;20026;-81
2022/01/17 04:54:59;;;;;;;104.45;44.05;;;;;;;-3.73;70.82;95577.03;5028556;28;20053;-80
2022/01/17 04:57:24;;;;;;;104.45;43.13;;;;;;;-3.14;71.64;95714.63;4997968;28;20030;-80
2022/01/17 04:59:50;;;;;;;108.45;44.03;;;;;;;-3.51;71.76;95650.59;4996782;28;20506;-79
2022/01/17 05:02:16;;;;;;;115.10;44.25;;;;;;;-3.55;70.92;95654.50;4998323;28;20042;-80
2022/01/17 05:04:44;;;;;;;123.97;45.92;;;;;;;-3.00;70.84;95692.28;4995350;28;20037;-80
2022/01/17 05:07:09;;;;;;;122.63;48.83;;;;;;;-3.32;71.02;95628.53;5027725;28;20038;-81
2022/01/17 05:09:35;;;;;;;117.85;50.20;;;;;;;-3.14;70.59;95634.19;4995698;28;20041;-80
2022/01/17 05:12:01;;;;;;;122.78;52.65;;;;;;;-2.52;70.35;95706.53;4996581;28;20030;-80
2022/01/17 05:14:27;;;;;;;132.63;54.17;;;;;;;-3.43;70.26;95564.91;4995808;28;20089;-81
2022/01/17 05:17:01;;;;;;;130.13;56.75;;;;;;;-2.90;70.48;95659.09;5029162;28;20102;-80
2022/01/17 05:22:11;;;;;;;132.38;53.08;;;;;;;-2.66;69.81;95658.00;4995621;28;20069;-81
2022/01/17 05:24:36;;;;;;;152.15;59.58;;;;;;;-2.80;70.48;95677.78;4995498;28;20536;-81
2022/01/17 05:27:03;;;;;;;137.30;57.75;;;;;;;-2.65;69.98;95672.59;4993685;28;20045;-81
2022/01/17 05:29:29;;;;;;;141.73;54.85;;;;;;;-2.75;69.77;95647.69;4994140;28;20042;-80
2022/01/17 05:31:54;;;;;;;143.40;59.10;;;;;;;-2.82;70.20;95625.22;4995934;28;20026;-81
2022/01/17 05:34:20;;;;;;;130.20;53.50;;;;;;;-2.36;69.71;95704.53;5026381;28;20161;-81
2022/01/17 05:36:45;;;;;;;122.97;51.65;;;;;;;-3.08;70.25;95601.53;4993990;28;20406;-81
2022/01/17 05:39:17;;;;;;;118.88;51.38;;;;;;;-2.82;70.27;95635.63;4994060;28;20034;-81
2022/01/17 05:41:42;;;;;;;;;;;;;;;-2.36;70.39;95714.13;4999000;28;20090;-81
2022/01/17 05:44:08;;;;;;;127.53;49.65;;;;;;;-2.56;70.61;95700.88;4993959;28;20015;-81
2022/01/17 05:46:33;;;;;;;137.77;54.13;;;;;;;-2.55;71.08;95723.28;5026802;28;20034;-81
2022/01/17 05:48:59;;;;;;;132.13;50.30;;;;;;;-2.74;71.42;95723.78;4993997;28;20121;-81
2022/01/17 05:51:24;;;;;;;122.35;47.30;;;;;;;-2.93;70.74;95688.78;5026808;28;20070;-81
2022/01/17 05:53:50;;;;;;;116.82;47.90;;;;;;;-2.78;70.32;95706.97;5028341;28;20418;-81
2022/01/17 05:56:15;;;;;;;120.00;48.97;;;;;;;-3.24;69.80;95618.88;4994685;28;20030;-82
2022/01/17 05:58:41;;;;;;;116.85;50.15;;;;;;;-2.84;70.53;95666.97;4996552;28;20476;-81
2022/01/17 06:01:08;;;;;;;132.05;53.13;;;;;;;-3.07;70.43;95668.00;4994955;28;20038;-81
2022/01/17 06:03:33;;;;;;;116.50;50.03;;;;;;;-2.73;70.47;95726.22;4996624;28;20062;-81
2022/01/17 06:05:59;;;;;;;129.88;49.80;;;;;;;-2.63;70.61;95738.94;4994308;28;20138;-82
2022/01/17 06:08:26;;;;;;;115.93;50.35;;;;;;;-2.88;69.40;95657.91;4995264;28;20393;-81
2022/01/17 06:10:51;;;;;;;117.45;50.47;;;;;;;-2.44;70.14;95750.59;4995834;28;20049;-81
2022/01/17 06:13:17;;;;;;;118.65;50.22;;;;;;;-2.94;70.02;95678.59;4995256;28;20034;-81
2022/01/17 06:15:42;;;;;;;125.95;48.40;;;;;;;-3.59;68.98;95559.91;5028267;28;20038;-81
2022/01/17 06:18:08;;;;;;;115.95;48.67;;;;;;;-2.38;69.67;95749.88;4996464;28;20049;-81
2022/01/17 06:20:34;;;;;;;124.15;46.55;;;;;;;-2.67;69.07;95695.34;4999086;28;20093;-81
2022/01/17 06:22:59;;;;;;;113.20;47.92;;;;;;;-2.36;69.48;95748.69;5032931;28;20041;-80
2022/01/17 06:25:26;;;;;;;113.53;45.45;;;;;;;-2.53;69.08;95729.09;5034916;28;20034;-81
2022/01/17 06:27:51;;;;;;;112.63;45.75;;;;;;;-3.06;69.24;95623.72;4997297;28;20041;-81
2022/01/17 06:30:19;;;;;;;105.82;45.97;;;;;;;-2.74;68.09;95661.47;5030245;28;20505;-80
2022/01/17 06:32:45;;;;;;;112.93;43.42;;;;;;;-2.81;68.22;95635.44;5028779;28;20027;-81
2022/01/17 06:35:11;;;;;;;108.15;43.85;;;;;;;-2.32;67.53;95725.78;4994430;28;20077;-82
2022/01/17 06:37:39;;;;;;;113.50;43.58;;;;;;;-2.63;68.95;95727.75;4996586;28;20034;-81
2022/01/17 06:40:07;;;;;;;103.68;42.95;;;;;;;-2.70;68.66;95688.72;5026932;28;20030;-80
2022/01/17 06:42:34;;;;;;;101.75;41.75;;;;;;;-3.17;68.20;95611.19;4996627;28;20053;-80
2022/01/17 06:45:04;;;;;;;96.38;40.47;;;;;;;-2.12;68.14;95762.41;4995128;28;20051;-80
2022/01/17 06:47:34;;;;;;;106.75;42.25;;;;;;;-2.04;68.17;95757.91;5028138;28;20069;-81
2022/01/17 06:50:00;;;;;;;122.35;43.55;;;;;;;-1.92;67.58;95765.25;4994991;28;20045;-80
2022/01/17 06:52:26;;;;;;;113.00;41.58;;;;;;;-3.36;67.36;95544.28;4995017;28;20473;-80
2022/01/17 06:54:52;;;;;;;107.22;43.03;;;;;;;-2.20;67.60;95741.69;4997536;28;20038;-81
2022/01/17 06:57:18;;;;;;;117.68;40.88;;;;;;;-2.19;67.82;95727.72;4996743;28;20100;-80
2022/01/17 06:59:45;;;;;;;95.53;38.42;;;;;;;-2.77;67.58;95667.84;4994704;28;20042;-80
2022/01/17 07:02:10;;;;;;;94.40;39.10;;;;;;;-2.28;66.50;95729.63;4995593;28;20040;-80
2022/01/17 07:04:36;;;;;;;99.47;40.40;;;;;;;-2.65;66.31;95631.84;4995146;28;20522;-81
2022/01/17 07:07:02;;;;;;;107.95;43.35;;;;;;;-1.91;66.20;95753.88;4996015;28;20482;-81
2022/01/17 07:09:29;;;;;;;130.07;52.05;;;;;;;-2.86;66.19;95601.44;5032513;28;20042;-80
2022/01/17 07:11:58;;;;;;;131.68;58.15;;;;;;;-1.69;66.08;95748.53;4996324;28;20023;-81
2022/01/17 07:14:28;;;;;;;142.30;58.03;;;;;;;-2.17;65.86;95663.41;5044295;28;20036;-80
2022/01/17 07:16:53;;;;;;;135.23;52.42;;;;;;;-1.61;65.24;95752.81;4993535;28;20149;-81
2022/01/17 07:19:23;;;;;;;144.02;58.40;;;;;;;-2.35;65.49;95653.38;4995727;28;20049;-81
2022/01/17 07:21:49;;;;;;;112.22;48.05;;;;;;;-1.70;66.08;95739.13;4996479;28;20030;-80
2022/01/17 07:24:16;;;;;;;119.13;44.40;;;;;;;-1.52;66.41;95780.31;5025951;28;20035;-80
2022/01/17 07:26:41;;;;;;;88.00;37.95;;;;;;;-2.29;67.14;95644.09;4995787;28;20064;-81
2022/01/17 07:29:08;;;;;;;45.53;19.95;;;;;;;-2.25;66.16;95620.16;5027167;28;20057;-80
2022/01/17 07:31:38;;;;;;;36.03;17.05;;;;;;;-1.27;66.37;95734.75;5028770;28;20049;-81
2022/01/17 07:34:07;;;;;;;36.42;15.43;;;;;;;-0.77;65.83;95766.00;4997960;28;20042;-80
2022/01/17 07:36:32;;;;;;;33.50;14.45;;;;;;;-1.20;65.47;95669.72;4998609;28;20042;-80
2022/01/17 07:38:59;;;;;;;36.78;13.35;;;;;;;-1.08;64.88;95673.44;4997445;28;20034;-80
2022/01/17 07:41:25;;;;;;;40.60;12.90;;;;;;;-0.75;65.04;95714.50;4998700;28;20042;-80
2022/01/17 07:43:52;;;;;;;26.50;12.43;;;;;;;-1.07;65.07;95649.03;4998506;28;20050;-80
2022/01/17 07:46:31;;;;;;;31.58;11.52;;;;;;;-0.86;64.75;95677.59;4999779;28;20034;-80
2022/01/17 07:51:24;;;;;;;38.03;11.88;;;;;;;-0.54;65.62;95733.53;5002297;28;20058;-80
2022/01/17 07:53:50;;;;;;;42.58;12.25;;;;;;;-0.99;64.86;95643.66;5001104;28;20529;-81
2022/01/17 07:56:15;;;;;;;27.90;11.73;;;;;;;-0.54;65.03;95728.31;4997976;28;20097;-82
2022/01/17 07:58:41;;;;;;;24.55;11.02;;;;;;;-0.72;65.00;95724.56;5029960;28;20030;-81
2022/01/17 08:01:07;;;;;;;38.47;12.80;;;;;;;-0.73;64.45;95741.19;5030097;28;20549;-80
2022/01/17 08:03:33;;;;;;;32.58;12.02;;;;;;;0.02;64.49;95855.97;5030578;28;20034;-80
2022/01/17 08:05:59;;;;;;;28.95;12.70;;;;;;;-0.48;64.72;95745.78;4998821;28;20057;-81
2022/01/17 08:08:25;;;;;;;26.02;11.23;;;;;;;-0.03;62.76;95799.19;4999816;28;20092;-81
2022/01/17 08:10:51;;;;;;;36.78;13.05;;;;;;;-0.46;63.34;95683.84;4997499;28;20041;-80
2022/01/17 08:13:18;;;;;;;24.80;11.70;;;;;;;-0.27;62.89;95666.69;4997660;28;20030;-81
2022/01/17 08:15:45;;;;;;;25.70;11.10;;;;;;;0.16;61.89;95703.75;5013489;28;20528;-81
2022/01/17 08:18:11;;;;;;;30.23;11.68;;;;;;;0.55;61.16;95755.25;5030040;28;20045;-81
2022/01/17 08:20:37;;;;;;;27.73;13.07;;;;;;;0.56;61.15;95733.38;4997995;28;20391;-81
2022/01/17 08:23:03;;;;;;;32.03;12.75;;;;;;;0.59;61.51;95740.81;4996643;28;20045;-80
2022/01/17 08:25:29;;;;;;;41.80;14.40;;;;;;;0.49;61.19;95729.13;4998197;28;20090;-80
2022/01/17 08:27:55;;;;;;;21.77;8.77;;;;;;;0.64;59.51;95756.69;4998101;28;20456;-80
2022/01/17 08:30:20;;;;;;;43.63;12.73;;;;;;;0.87;60.39;95792.06;4996166;28;20034;-81
2022/01/17 08:32:46;;;;;;;44.17;13.07;;;;;;;0.77;60.93;95803.69;4997137;28;20084;-80
2022/01/17 08:35:11;;;;;;;30.00;11.38;;;;;;;0.44;60.86;95762.84;4996953;28;20034;-80
2022/01/17 08:37:37;;;;;;;41.53;12.82;;;;;;;0.58;61.53;95814.09;4997812;28;20038;-81
2022/01/17 08:40:05;;;;;;;20.92;11.00;;;;;;;0.92;61.47;95832.25;5028697;28;20038;-81
2022/01/17 08:42:36;;;;;;;29.20;11.73;;;;;;;0.96;61.13;95785.66;4995762;28;20046;-81
2022/01/17 08:45:19;;;;;;;25.98;10.95;;;;;;;1.14;61.57;95846.00;4997473;28;20056;-81
2022/01/17 08:47:52;;;;;;;19.65;10.43;;;;;;;1.09;61.91;95810.00;4997864;28;20506;-80
2022/01/17 08:50:20;;;;;;;22.38;11.57;;;;;;;-1.35;61.48;95394.03;5033796;28;20414;-80
2022/01/17 08:52:46;;;;;;;31.17;12.00;;;;;;;0.11;61.51;95599.22;5002045;28;20027;-81
2022/01/17 08:55:11;;;;;;;24.88;11.88;;;;;;;-0.78;61.70;95413.63;4999032;28;20042;-80
2022/01/17 08:57:37;;;;;;;40.10;13.50;;;;;;;0.06;61.06;95522.59;5005785;28;20106;-80
2022/01/17 09:00:15;;;;;;;31.25;13.95;;;;;;;1.03;61.52;95682.81;4997053;28;20042;-81
2022/01/17 09:02:40;;;;;;;28.20;12.35;;;;;;;1.05;61.02;95695.66;4998400;28;20039;-81
2022/01/17 09:05:06;;;;;;;33.92;12.55;;;;;;;0.70;60.60;95595.84;4998783;28;20034;-82
2022/01/17 09:07:32;;;;;;;26.95;11.88;;;;;;;1.43;59.83;95651.41;4996899;28;20049;-81
2022/01/17 09:09:57;;;;;;;35.15;13.02;;;;;;;1.39;59.78;95644.97;4997955;28;20061;-80
2022/01/17 09:12:23;;;;;;;27.45;12.10;;;;;;;0.96;59.09;95582.75;4998084;28;20038;-81
2022/01/17 09:14:48;;;;;;;26.02;10.20;;;;;;;1.44;58.49;95645.97;4996181;28;20041;-80
2022/01/17 09:17:14;;;;;;;29.20;10.65;;;;;;;1.53;58.21;95660.41;4998311;28;20041;-79
2022/01/17 09:19:41;;;;;;;22.25;9.65;;;;;;;1.55;58.11;95673.28;4995975;28;20429;-81
2022/01/17 09:22:08;;;;;;;36.05;10.88;;;;;;;1.38;57.86;95620.63;4997407;28;20026;-80
2022/01/17 09:24:35;;;;;;;25.70;10.93;;;;;;;1.74;57.39;95661.16;4999472;28;20117;-81
2022/01/17 09:27:01;;;;;;;29.85;11.70;;;;;;;1.55;57.57;95624.41;4998387;28;20030;-80
2022/01/17 09:29:27;;;;;;;31.92;11.13;;;;;;;1.44;57.66;95608.59;4996966;28;20049;-80
2022/01/17 09:31:52;;;;;;;24.77;10.70;;;;;;;1.96;57.99;95682.63;4997482;28;20486;-80
2022/01/17 09:34:18;;;;;;;25.50;10.85;;;;;;;1.93;58.27;95652.44;5028452;28;20026;-81
2022/01/17 09:36:44;;;;;;;34.17;10.73;;;;;;;1.79;57.73;95649.06;4997270;28;20487;-81
2022/01/17 09:39:10;;;;;;;22.90;10.30;;;;;;;2.03;57.79;95699.88;4997364;28;20030;-80
2022/01/17 09:41:41;;;;;;;32.22;10.80;;;;;;;1.76;57.97;95636.41;4997194;28;20134;-81
2022/01/17 09:44:10;;;;;;;24.77;11.25;;;;;;;0.78;58.17;95505.06;4997590;28;20077;-80
2022/01/17 09:46:43;;;;;;;32.15;12.18;;;;;;;-1.48;58.35;95125.25;4996701;28;20137;-81
2022/01/17 09:49:34;;;;;;;25.38;11.43;;;;;;;-0.13;58.45;95352.09;5029097;28;20034;-80
2022/01/17 09:52:12;;;;;;;28.73;13.68;;;;;;;0.53;58.86;95440.69;4995666;28;20037;-81
2022/01/17 09:54:42;;;;;;;30.13;13.10;;;;;;;0.44;59.11;95447.13;4996373;28;20054;-80
2022/01/17 09:57:10;;;;;;;27.58;10.73;;;;;;;1.83;58.95;95667.78;4994818;28;20370;-80
2022/01/17 09:59:38;;;;;;;21.80;11.02;;;;;;;1.70;60.37;95615.50;5027690;28;20084;-80
2022/01/17 10:02:07;;;;;;;22.95;11.57;;;;;;;0.32;60.34;95446.94;4995696;28;20030;-81
2022/01/17 10:04:34;;;;;;;22.15;10.38;;;;;;;2.16;61.04;95684.13;5028048;28;20041;-80
2022/01/17 10:07:01;;;;;;;17.70;7.75;;;;;;;1.78;61.42;95655.31;4994679;28;20085;-80
2022/01/17 10:09:28;;;;;;;20.77;9.85;;;;;;;2.09;61.03;95725.22;4995383;28;20454;-79
2022/01/17 10:12:17;;;;;;;18.23;7.88;;;;;;;1.78;61.60;95647.47;4993660;28;20038;-80
2022/01/17 10:15:02;;;;;;;24.13;8.50;;;;;;;2.13;61.65;95705.50;4990979;28;20046;-80
2022/01/17 10:17:57;;;;;;;29.25;8.68;;;;;;;1.99;61.88;95687.41;4992873;28;20121;-79
2022/01/17 10:20:23;;;;;;;16.67;7.13;;;;;;;2.04;61.86;95709.34;4990490;28;20407;-80
2022/01/17 10:23:16;;;;;;;16.40;7.28;;;;;;;1.92;61.32;95645.59;4995435;28;20029;-79
2022/01/17 10:25:56;;;;;;;17.95;8.82;;;;;;;1.88;60.18;95618.25;5026921;28;20129;-80
2022/01/17 10:36:19;;;;;;;13.52;5.95;;;;;;;3.37;56.80;95697.00;4996704;28;20104;-79
2022/01/17 10:38:44;;;;;;;13.00;5.07;;;;;;;3.64;56.24;95687.88;4996420;28;20030;-80
2022/01/17 10:41:10;;;;;;;12.93;5.72;;;;;;;3.55;56.06;95670.81;4993861;28;20048;-80
2022/01/17 10:43:39;;;;;;;13.00;6.40;;;;;;;3.74;55.31;95679.47;5026058;28;20418;-80
2022/01/17 10:46:10;;;;;;;10.23;6.80;;;;;;;3.75;55.30;95713.38;4993585;28;20103;-80
2022/01/17 10:48:41;;;;;;;13.70;6.78;;;;;;;3.74;54.88;95656.66;4991759;28;20354;-80
2022/01/17 10:51:07;;;;;;;10.85;6.65;;;;;;;3.62;54.61;95594.69;4995878;28;20177;-81
2022/01/17 10:53:33;;;;;;;11.85;6.32;;;;;;;3.48;54.03;95571.22;4994609;28;20568;-80
2022/01/17 10:56:07;;;;;;;17.92;6.47;;;;;;;4.31;53.84;95680.03;4996107;28;20041;-81
2022/01/17 10:58:35;;;;;;;11.27;6.57;;;;;;;3.88;53.91;95597.78;4995102;28;20030;-80
2022/01/17 11:01:11;;;;;;;15.82;7.75;;;;;;;4.12;53.59;95632.78;4993000;28;20541;-80
2022/01/17 11:03:38;;;;;;;13.30;6.10;;;;;;;2.42;53.39;95376.94;4995400;28;20030;-82
2022/01/17 11:06:07;;;;;;;13.88;6.40;;;;;;;4.55;52.69;95698.28;5000711;28;20065;-82
2022/01/17 11:08:34;;;;;;;11.90;6.20;;;;;;;3.73;53.22;95576.41;5000003;28;20417;-88
2022/01/17 11:11:05;;;;;;;14.18;6.97;;;;;;;4.38;53.59;95668.41;5001922;28;20034;-88
2022/01/17 11:13:34;;;;;;;20.73;8.48;;;;;;;4.55;53.28;95673.84;5007670;28;20037;-89
2022/01/17 11:16:04;;;;;;;13.55;7.20;;;;;;;4.20;52.99;95652.69;4989365;28;20038;-89
2022/01/17 11:18:31;;;;;;;18.58;8.48;;;;;;;4.41;53.90;95688.19;5034047;28;20046;-87
2022/01/17 11:21:10;;;;;;;23.30;7.68;;;;;;;4.46;53.77;95654.16;5001803;28;20030;-88
2022/01/17 11:23:38;;;;;;;18.27;8.35;;;;;;;2.33;53.21;95318.03;5000868;28;20114;-89
2022/01/17 11:26:05;;;;;;;17.73;7.97;;;;;;;4.23;53.31;95586.63;4998919;28;20035;-88
2022/01/17 11:28:33;;;;;;;13.77;7.88;;;;;;;4.12;53.22;95551.41;5031817;28;20145;-88
2022/01/17 11:31:01;;;;;;;23.05;8.88;;;;;;;2.54;52.64;95283.53;4999559;28;20034;-87
2022/01/17 11:33:27;;;;;;;15.15;6.90;;;;;;;4.12;52.66;95527.81;5000852;28;20502;-88
2022/01/17 11:35:54;;;;;;;12.93;6.40;;;;;;;2.55;51.84;95326.22;4999389;28;20046;-80
2022/01/17 11:38:33;;;;;;;13.93;7.15;;;;;;;4.51;52.18;95626.19;5031128;28;20084;-81
2022/01/17 11:41:00;;;;;;;12.88;7.15;;;;;;;4.33;51.61;95607.09;4998767;28;20474;-82